sensor_id;sensor_type;location;lat;lon;timestamp;temperature;humidity
9410;DHT22;4744;52.576;13.568;2023-03-01T00:01:03;-2.70;1.00
9410;DHT22;4744;52.576;13.568;2023-03-01T00:03:31;-2.70;1.00
9410;DHT22;4744;52.576;13.568;2023-03-01T00:05:58;-2.70;1.00
9410;DHT22;4744;52.576;13.568;2023-03-01T00:08:26;-2.70;1.00
9410;DHT22;4744;52.576;13.568;2023-03-01T00:11:00;-2.70;1.00
9410;DHT22;4744;52.576;13.568;2023-03-01T00:13:28;-2.80;1.00
9410;DHT22;4744;52.576;13.568;2023-03-01T00:15:55;-2.80;1.00
9410;DHT22;4744;52.576;13.568;2023-03-01T00:18:24;-2.90;1.00
9410;DHT22;4744;52.576;13.568;2023-03-01T00:20:51;-3.00;1.00
9410;DHT22;4744;52.576;13.568;2023-03-01T00:23:18;-3.00;1.00
9410;DHT22;4744;52.576;13.568;2023-03-01T00:25:45;-3.10;1.00
9410;DHT22;4744;52.576;13.568;2023-03-01T00:28:12;-3.10;1.00
9410;DHT22;4744;52.576;13.568;2023-03-01T00:30:39;-3.20;1.00
9410;DHT22;4744;52.576;13.568;2023-03-01T00:33:06;-3.20;1.00
9410;DHT22;4744;52.576;13.568;2023-03-01T00:35:35;-3.20;1.00
9410;DHT22;4744;52.576;13.568;2023-03-01T00:38:02;-3.20;1.00
9410;DHT22;4744;52.576;13.568;2023-03-01T00:40:32;-3.20;1.00
9410;DHT22;4744;52.576;13.568;2023-03-01T00:42:59;-3.30;1.00
9410;DHT22;4744;52.576;13.568;2023-03-01T00:45:27;-3.30;1.00
9410;DHT22;4744;52.576;13.568;2023-03-01T00:47:54;-3.40;1.00
9410;DHT22;4744;52.576;13.568;2023-03-01T00:50:21;-3.40;1.00
9410;DHT22;4744;52.576;13.568;2023-03-01T00:52:52;-3.40;1.00
9410;DHT22;4744;52.576;13.568;2023-03-01T00:55:19;-3.40;1.00
9410;DHT22;4744;52.576;13.568;2023-03-01T00:57:46;-3.40;1.00
9410;DHT22;4744;52.576;13.568;2023-03-01T01:00:14;-3.40;1.00
9410;DHT22;4744;52.576;13.568;2023-03-01T01:02:41;-3.40;1.00
9410;DHT22;4744;52.576;13.568;2023-03-01T01:05:08;-3.40;1.00
9410;DHT22;4744;52.576;13.568;2023-03-01T01:07:35;-3.50;1.00
9410;DHT22;4744;52.576;13.568;2023-03-01T01:10:04;-3.50;1.00
9410;DHT22;4744;52.576;13.568;2023-03-01T01:12:32;-3.50;1.00
9410;DHT22;4744;52.576;13.568;2023-03-01T01:14:59;-3.50;1.00
9410;DHT22;4744;52.576;13.568;2023-03-01T01:17:26;-3.50;1.00
9410;DHT22;4744;52.576;13.568;2023-03-01T01:19:52;-3.50;1.00
9410;DHT22;4744;52.576;13.568;2023-03-01T01:22:19;-3.50;1.00
9410;DHT22;4744;52.576;13.568;2023-03-01T01:24:46;-3.50;1.00
9410;DHT22;4744;52.576;13.568;2023-03-01T01:27:15;-3.60;1.00
9410;DHT22;4744;52.576;13.568;2023-03-01T01:29:41;-3.60;1.00
9410;DHT22;4744;52.576;13.568;2023-03-01T01:32:08;-3.60;1.00
9410;DHT22;4744;52.576;13.568;2023-03-01T01:34:35;-3.60;1.00
9410;DHT22;4744;52.576;13.568;2023-03-01T01:37:02;-3.60;1.00
9410;DHT22;4744;52.576;13.568;2023-03-01T01:39:33;-3.60;1.00
9410;DHT22;4744;52.576;13.568;2023-03-01T01:42:00;-3.60;1.00
9410;DHT22;4744;52.576;13.568;2023-03-01T01:44:29;-3.70;1.00
9410;DHT22;4744;52.576;13.568;2023-03-01T01:46:58;-3.70;1.00
9410;DHT22;4744;52.576;13.568;2023-03-01T01:49:31;-3.70;1.00
9410;DHT22;4744;52.576;13.568;2023-03-01T01:52:04;-3.70;1.00
9410;DHT22;4744;52.576;13.568;2023-03-01T01:54:41;-3.70;1.00
9410;DHT22;4744;52.576;13.568;2023-03-01T01:57:14;-3.80;1.00
9410;DHT22;4744;52.576;13.568;2023-03-01T01:59:46;-3.80;1.00
9410;DHT22;4744;52.576;13.568;2023-03-01T02:02:14;-3.80;1.00
9410;DHT22;4744;52.576;13.568;2023-03-01T02:04:42;-3.90;1.00
9410;DHT22;4744;52.576;13.568;2023-03-01T02:07:14;-3.90;1.00
9410;DHT22;4744;52.576;13.568;2023-03-01T02:09:44;-3.90;1.00
9410;DHT22;4744;52.576;13.568;2023-03-01T02:12:13;-3.90;1.00
9410;DHT22;4744;52.576;13.568;2023-03-01T02:14:40;-3.90;1.00
9410;DHT22;4744;52.576;13.568;2023-03-01T02:17:10;-3.90;1.00
9410;DHT22;4744;52.576;13.568;2023-03-01T02:19:46;-3.90;1.00
9410;DHT22;4744;52.576;13.568;2023-03-01T02:22:20;-3.90;1.00
9410;DHT22;4744;52.576;13.568;2023-03-01T02:24:57;-3.90;1.00
9410;DHT22;4744;52.576;13.568;2023-03-01T02:27:36;-3.90;1.00
9410;DHT22;4744;52.576;13.568;2023-03-01T02:30:07;-3.90;1.00
9410;DHT22;4744;52.576;13.568;2023-03-01T02:32:38;-3.90;1.00
9410;DHT22;4744;52.576;13.568;2023-03-01T02:35:08;-3.90;1.00
9410;DHT22;4744;52.576;13.568;2023-03-01T02:37:36;-3.90;1.00
9410;DHT22;4744;52.576;13.568;2023-03-01T02:40:07;-3.90;1.00
9410;DHT22;4744;52.576;13.568;2023-03-01T02:42:42;-3.90;1.00
9410;DHT22;4744;52.576;13.568;2023-03-01T02:45:13;-3.90;1.00
9410;DHT22;4744;52.576;13.568;2023-03-01T02:47:40;-3.90;1.00
9410;DHT22;4744;52.576;13.568;2023-03-01T02:50:21;-3.90;1.00
9410;DHT22;4744;52.576;13.568;2023-03-01T02:52:56;-3.90;1.00
9410;DHT22;4744;52.576;13.568;2023-03-01T02:55:24;-3.90;1.00
9410;DHT22;4744;52.576;13.568;2023-03-01T02:57:51;-3.90;1.00
9410;DHT22;4744;52.576;13.568;2023-03-01T03:00:22;-3.90;1.00
9410;DHT22;4744;52.576;13.568;2023-03-01T03:02:52;-4.00;1.00
9410;DHT22;4744;52.576;13.568;2023-03-01T03:05:24;-4.00;1.00
9410;DHT22;4744;52.576;13.568;2023-03-01T03:07:51;-3.90;1.00
9410;DHT22;4744;52.576;13.568;2023-03-01T03:10:20;-3.90;1.00
9410;DHT22;4744;52.576;13.568;2023-03-01T03:12:49;-3.90;1.00
9410;DHT22;4744;52.576;13.568;2023-03-01T03:15:17;-3.90;1.00
9410;DHT22;4744;52.576;13.568;2023-03-01T03:17:45;-3.90;1.00
9410;DHT22;4744;52.576;13.568;2023-03-01T03:20:14;-3.90;1.00
9410;DHT22;4744;52.576;13.568;2023-03-01T03:22:45;-4.00;1.00
9410;DHT22;4744;52.576;13.568;2023-03-01T03:25:12;-4.00;1.00
9410;DHT22;4744;52.576;13.568;2023-03-01T03:27:40;-4.00;1.00
9410;DHT22;4744;52.576;13.568;2023-03-01T03:30:09;-4.00;1.00
9410;DHT22;4744;52.576;13.568;2023-03-01T03:32:38;-4.00;1.00
9410;DHT22;4744;52.576;13.568;2023-03-01T03:35:08;-4.00;1.00
9410;DHT22;4744;52.576;13.568;2023-03-01T03:37:36;-4.10;1.00
9410;DHT22;4744;52.576;13.568;2023-03-01T03:40:21;-4.10;1.00
9410;DHT22;4744;52.576;13.568;2023-03-01T03:42:48;-4.10;1.00
9410;DHT22;4744;52.576;13.568;2023-03-01T03:45:15;-4.10;1.00
9410;DHT22;4744;52.576;13.568;2023-03-01T03:47:42;-4.20;1.00
9410;DHT22;4744;52.576;13.568;2023-03-01T03:50:13;-4.20;1.00
9410;DHT22;4744;52.576;13.568;2023-03-01T03:52:40;-4.20;1.00
9410;DHT22;4744;52.576;13.568;2023-03-01T03:55:09;-4.20;1.00
9410;DHT22;4744;52.576;13.568;2023-03-01T03:57:36;-4.20;1.00
9410;DHT22;4744;52.576;13.568;2023-03-01T04:00:05;-4.30;1.00
9410;DHT22;4744;52.576;13.568;2023-03-01T04:02:38;-4.30;1.00
9410;DHT22;4744;52.576;13.568;2023-03-01T04:05:06;-4.30;1.00
9410;DHT22;4744;52.576;13.568;2023-03-01T04:07:34;-4.40;1.00
9410;DHT22;4744;52.576;13.568;2023-03-01T04:10:02;-4.50;1.00
9410;DHT22;4744;52.576;13.568;2023-03-01T04:12:29;-4.50;1.00
9410;DHT22;4744;52.576;13.568;2023-03-01T04:14:56;-4.60;1.00
9410;DHT22;4744;52.576;13.568;2023-03-01T04:17:23;-4.60;1.00
9410;DHT22;4744;52.576;13.568;2023-03-01T04:19:50;-4.60;1.00
9410;DHT22;4744;52.576;13.568;2023-03-01T04:22:17;-4.50;1.00
9410;DHT22;4744;52.576;13.568;2023-03-01T04:24:45;-4.50;1.00
9410;DHT22;4744;52.576;13.568;2023-03-01T04:27:12;-4.50;1.00
9410;DHT22;4744;52.576;13.568;2023-03-01T04:29:39;-4.50;1.00
9410;DHT22;4744;52.576;13.568;2023-03-01T04:32:06;-4.40;1.00
9410;DHT22;4744;52.576;13.568;2023-03-01T04:34:33;-4.40;1.00
9410;DHT22;4744;52.576;13.568;2023-03-01T04:37:00;-4.50;1.00
9410;DHT22;4744;52.576;13.568;2023-03-01T04:39:27;-4.40;1.00
9410;DHT22;4744;52.576;13.568;2023-03-01T04:41:56;-4.50;1.00
9410;DHT22;4744;52.576;13.568;2023-03-01T04:44:24;-4.50;1.00
9410;DHT22;4744;52.576;13.568;2023-03-01T04:46:51;-4.50;1.00
9410;DHT22;4744;52.576;13.568;2023-03-01T04:49:17;-4.50;1.00
9410;DHT22;4744;52.576;13.568;2023-03-01T04:51:44;-4.50;1.00
9410;DHT22;4744;52.576;13.568;2023-03-01T04:54:11;-4.50;1.00
9410;DHT22;4744;52.576;13.568;2023-03-01T04:56:38;-4.50;1.00
9410;DHT22;4744;52.576;13.568;2023-03-01T04:59:06;-4.60;1.00
9410;DHT22;4744;52.576;13.568;2023-03-01T05:01:35;-4.60;1.00
9410;DHT22;4744;52.576;13.568;2023-03-01T05:04:03;-4.60;1.00
9410;DHT22;4744;52.576;13.568;2023-03-01T05:06:31;-4.70;1.00
9410;DHT22;4744;52.576;13.568;2023-03-01T05:08:59;-4.70;1.00
9410;DHT22;4744;52.576;13.568;2023-03-01T05:11:26;-4.70;1.00
9410;DHT22;4744;52.576;13.568;2023-03-01T05:13:57;-4.80;1.00
9410;DHT22;4744;52.576;13.568;2023-03-01T05:16:25;-4.80;1.00
9410;DHT22;4744;52.576;13.568;2023-03-01T05:18:52;-4.80;1.00
9410;DHT22;4744;52.576;13.568;2023-03-01T05:21:21;-4.80;1.00
9410;DHT22;4744;52.576;13.568;2023-03-01T05:23:47;-4.80;1.00
9410;DHT22;4744;52.576;13.568;2023-03-01T05:26:15;-4.80;1.00
9410;DHT22;4744;52.576;13.568;2023-03-01T05:28:43;-4.80;1.00
9410;DHT22;4744;52.576;13.568;2023-03-01T05:31:10;-4.80;1.00
9410;DHT22;4744;52.576;13.568;2023-03-01T05:33:39;-4.80;1.00
9410;DHT22;4744;52.576;13.568;2023-03-01T05:36:07;-4.80;1.00
9410;DHT22;4744;52.576;13.568;2023-03-01T05:38:35;-4.80;1.00
9410;DHT22;4744;52.576;13.568;2023-03-01T05:41:02;-4.90;1.00
9410;DHT22;4744;52.576;13.568;2023-03-01T05:43:30;-4.90;1.00
9410;DHT22;4744;52.576;13.568;2023-03-01T05:45:59;-4.90;1.00
9410;DHT22;4744;52.576;13.568;2023-03-01T05:48:26;-4.90;1.00
9410;DHT22;4744;52.576;13.568;2023-03-01T05:50:54;-4.90;1.00
9410;DHT22;4744;52.576;13.568;2023-03-01T05:53:21;-4.90;1.00
9410;DHT22;4744;52.576;13.568;2023-03-01T05:55:48;-4.90;1.00
9410;DHT22;4744;52.576;13.568;2023-03-01T05:58:18;-4.90;1.00
9410;DHT22;4744;52.576;13.568;2023-03-01T06:00:47;-4.80;1.00
9410;DHT22;4744;52.576;13.568;2023-03-01T06:03:15;-4.80;1.00
9410;DHT22;4744;52.576;13.568;2023-03-01T06:05:43;-4.80;1.00
9410;DHT22;4744;52.576;13.568;2023-03-01T06:08:11;-4.90;1.00
9410;DHT22;4744;52.576;13.568;2023-03-01T06:10:39;-4.90;1.00
9410;DHT22;4744;52.576;13.568;2023-03-01T06:13:06;-4.90;1.00
9410;DHT22;4744;52.576;13.568;2023-03-01T06:15:33;-4.90;1.00
9410;DHT22;4744;52.576;13.568;2023-03-01T06:18:00;-4.80;1.00
9410;DHT22;4744;52.576;13.568;2023-03-01T06:20:28;-4.80;1.00
9410;DHT22;4744;52.576;13.568;2023-03-01T06:22:55;-4.70;1.00
9410;DHT22;4744;52.576;13.568;2023-03-01T06:25:26;-4.70;1.00
9410;DHT22;4744;52.576;13.568;2023-03-01T06:27:53;-4.60;1.00
9410;DHT22;4744;52.576;13.568;2023-03-01T06:30:21;-4.60;1.00
9410;DHT22;4744;52.576;13.568;2023-03-01T06:32:49;-4.60;1.00
9410;DHT22;4744;52.576;13.568;2023-03-01T06:35:17;-4.50;1.00
9410;DHT22;4744;52.576;13.568;2023-03-01T06:37:45;-4.50;1.00
9410;DHT22;4744;52.576;13.568;2023-03-01T06:40:13;-4.40;1.00
9410;DHT22;4744;52.576;13.568;2023-03-01T06:42:43;-4.30;1.00
9410;DHT22;4744;52.576;13.568;2023-03-01T06:45:13;-4.20;1.00
9410;DHT22;4744;52.576;13.568;2023-03-01T06:47:40;-4.10;1.00
9410;DHT22;4744;52.576;13.568;2023-03-01T06:50:09;-4.00;1.00
9410;DHT22;4744;52.576;13.568;2023-03-01T06:52:36;-4.00;1.00
9410;DHT22;4744;52.576;13.568;2023-03-01T06:55:03;-3.90;1.00
9410;DHT22;4744;52.576;13.568;2023-03-01T06:57:30;-3.80;1.00
9410;DHT22;4744;52.576;13.568;2023-03-01T06:59:58;-3.60;1.00
9410;DHT22;4744;52.576;13.568;2023-03-01T07:02:25;-3.50;1.00
9410;DHT22;4744;52.576;13.568;2023-03-01T07:04:52;-3.40;1.00
9410;DHT22;4744;52.576;13.568;2023-03-01T07:07:19;-3.20;1.00
9410;DHT22;4744;52.576;13.568;2023-03-01T07:09:46;-3.10;1.00
9410;DHT22;4744;52.576;13.568;2023-03-01T07:12:15;-2.90;1.00
9410;DHT22;4744;52.576;13.568;2023-03-01T07:14:43;-2.40;1.00
9410;DHT22;4744;52.576;13.568;2023-03-01T07:17:12;-1.50;1.00
9410;DHT22;4744;52.576;13.568;2023-03-01T07:19:39;-0.90;1.00
9410;DHT22;4744;52.576;13.568;2023-03-01T07:22:06;-0.40;1.00
9410;DHT22;4744;52.576;13.568;2023-03-01T07:24:35;0.30;1.00
9410;DHT22;4744;52.576;13.568;2023-03-01T07:27:01;1.20;1.00
9410;DHT22;4744;52.576;13.568;2023-03-01T07:29:28;2.20;1.00
9410;DHT22;4744;52.576;13.568;2023-03-01T07:31:55;3.20;1.00
9410;DHT22;4744;52.576;13.568;2023-03-01T07:34:24;4.10;1.00
9410;DHT22;4744;52.576;13.568;2023-03-01T07:36:51;4.80;1.00
9410;DHT22;4744;52.576;13.568;2023-03-01T07:39:18;5.00;1.00
9410;DHT22;4744;52.576;13.568;2023-03-01T07:41:45;5.20;1.00
9410;DHT22;4744;52.576;13.568;2023-03-01T07:44:12;5.50;1.00
9410;DHT22;4744;52.576;13.568;2023-03-01T07:46:39;5.20;1.00
9410;DHT22;4744;52.576;13.568;2023-03-01T07:49:06;4.70;1.00
9410;DHT22;4744;52.576;13.568;2023-03-01T07:51:34;4.30;1.00
9410;DHT22;4744;52.576;13.568;2023-03-01T07:54:01;3.90;1.00
9410;DHT22;4744;52.576;13.568;2023-03-01T07:56:28;3.50;1.00
9410;DHT22;4744;52.576;13.568;2023-03-01T07:58:55;3.20;1.00
9410;DHT22;4744;52.576;13.568;2023-03-01T08:01:22;2.90;1.00
9410;DHT22;4744;52.576;13.568;2023-03-01T08:03:49;2.60;1.00
9410;DHT22;4744;52.576;13.568;2023-03-01T08:06:17;2.30;1.00
9410;DHT22;4744;52.576;13.568;2023-03-01T08:08:45;2.10;1.00
9410;DHT22;4744;52.576;13.568;2023-03-01T08:11:13;2.00;1.00
9410;DHT22;4744;52.576;13.568;2023-03-01T08:13:42;2.10;1.00
9410;DHT22;4744;52.576;13.568;2023-03-01T08:16:12;2.20;1.00
9410;DHT22;4744;52.576;13.568;2023-03-01T08:18:39;2.20;1.00
9410;DHT22;4744;52.576;13.568;2023-03-01T08:21:07;2.20;1.00
9410;DHT22;4744;52.576;13.568;2023-03-01T08:23:34;2.20;1.00
9410;DHT22;4744;52.576;13.568;2023-03-01T08:26:07;2.20;1.00
9410;DHT22;4744;52.576;13.568;2023-03-01T08:28:35;2.20;1.00
9410;DHT22;4744;52.576;13.568;2023-03-01T08:31:02;2.20;1.00
9410;DHT22;4744;52.576;13.568;2023-03-01T08:33:29;2.30;1.00
9410;DHT22;4744;52.576;13.568;2023-03-01T08:36:03;2.30;1.00
9410;DHT22;4744;52.576;13.568;2023-03-01T08:38:32;2.40;1.00
9410;DHT22;4744;52.576;13.568;2023-03-01T08:41:00;2.90;1.00
9410;DHT22;4744;52.576;13.568;2023-03-01T08:43:29;3.10;1.00
9410;DHT22;4744;52.576;13.568;2023-03-01T08:45:56;3.30;1.00
9410;DHT22;4744;52.576;13.568;2023-03-01T08:48:23;3.40;1.00
9410;DHT22;4744;52.576;13.568;2023-03-01T08:50:50;3.50;1.00
9410;DHT22;4744;52.576;13.568;2023-03-01T08:53:16;3.70;1.00
9410;DHT22;4744;52.576;13.568;2023-03-01T08:55:43;4.20;1.00
9410;DHT22;4744;52.576;13.568;2023-03-01T08:58:10;5.20;1.00
9410;DHT22;4744;52.576;13.568;2023-03-01T09:00:39;6.70;1.00
9410;DHT22;4744;52.576;13.568;2023-03-01T09:03:06;8.50;1.00
9410;DHT22;4744;52.576;13.568;2023-03-01T09:05:33;9.40;1.00
9410;DHT22;4744;52.576;13.568;2023-03-01T09:08:02;9.40;1.00
9410;DHT22;4744;52.576;13.568;2023-03-01T09:10:29;9.80;1.00
9410;DHT22;4744;52.576;13.568;2023-03-01T09:12:56;10.30;1.00
9410;DHT22;4744;52.576;13.568;2023-03-01T09:15:23;10.50;1.00
9410;DHT22;4744;52.576;13.568;2023-03-01T09:17:51;10.90;1.00
9410;DHT22;4744;52.576;13.568;2023-03-01T09:20:18;10.70;1.00
9410;DHT22;4744;52.576;13.568;2023-03-01T09:22:45;10.50;1.00
9410;DHT22;4744;52.576;13.568;2023-03-01T09:25:12;10.70;1.00
9410;DHT22;4744;52.576;13.568;2023-03-01T09:27:39;11.10;1.00
9410;DHT22;4744;52.576;13.568;2023-03-01T09:30:07;11.10;1.00
9410;DHT22;4744;52.576;13.568;2023-03-01T09:32:34;11.60;1.00
9410;DHT22;4744;52.576;13.568;2023-03-01T09:35:03;12.50;1.00
9410;DHT22;4744;52.576;13.568;2023-03-01T09:37:31;12.50;1.00
9410;DHT22;4744;52.576;13.568;2023-03-01T09:39:59;12.60;1.00
9410;DHT22;4744;52.576;13.568;2023-03-01T09:42:27;13.00;1.00
9410;DHT22;4744;52.576;13.568;2023-03-01T09:44:59;13.50;1.00
9410;DHT22;4744;52.576;13.568;2023-03-01T09:47:29;13.70;1.00
9410;DHT22;4744;52.576;13.568;2023-03-01T09:50:04;13.90;1.00
9410;DHT22;4744;52.576;13.568;2023-03-01T09:52:38;13.60;1.00
9410;DHT22;4744;52.576;13.568;2023-03-01T09:55:10;13.30;1.00
9410;DHT22;4744;52.576;13.568;2023-03-01T09:57:43;12.70;1.00
9410;DHT22;4744;52.576;13.568;2023-03-01T10:00:31;12.20;1.00
9410;DHT22;4744;52.576;13.568;2023-03-01T10:03:07;12.20;1.00
9410;DHT22;4744;52.576;13.568;2023-03-01T10:05:44;12.40;1.00
9410;DHT22;4744;52.576;13.568;2023-03-01T10:08:35;12.30;1.00
9410;DHT22;4744;52.576;13.568;2023-03-01T10:11:05;11.90;1.00
9410;DHT22;4744;52.576;13.568;2023-03-01T10:13:47;12.00;1.00
9410;DHT22;4744;52.576;13.568;2023-03-01T10:16:22;12.30;1.00
9410;DHT22;4744;52.576;13.568;2023-03-01T10:18:53;12.30;1.00
9410;DHT22;4744;52.576;13.568;2023-03-01T10:21:23;12.00;1.00
9410;DHT22;4744;52.576;13.568;2023-03-01T10:23:53;11.70;1.00
9410;DHT22;4744;52.576;13.568;2023-03-01T10:26:41;11.90;1.00
9410;DHT22;4744;52.576;13.568;2023-03-01T10:29:14;11.60;1.00
9410;DHT22;4744;52.576;13.568;2023-03-01T10:31:43;11.20;1.00
9410;DHT22;4744;52.576;13.568;2023-03-01T10:34:13;10.60;1.00
9410;DHT22;4744;52.576;13.568;2023-03-01T10:36:43;10.40;1.00
9410;DHT22;4744;52.576;13.568;2023-03-01T10:39:16;10.40;1.00
9410;DHT22;4744;52.576;13.568;2023-03-01T10:41:56;10.30;1.00
9410;DHT22;4744;52.576;13.568;2023-03-01T10:44:39;9.90;1.00
9410;DHT22;4744;52.576;13.568;2023-03-01T10:47:23;9.80;1.00
9410;DHT22;4744;52.576;13.568;2023-03-01T10:49:53;10.00;1.00
9410;DHT22;4744;52.576;13.568;2023-03-01T10:52:24;9.90;1.00
9410;DHT22;4744;52.576;13.568;2023-03-01T10:54:54;9.90;1.00
9410;DHT22;4744;52.576;13.568;2023-03-01T10:57:35;10.00;1.00
9410;DHT22;4744;52.576;13.568;2023-03-01T11:00:22;10.20;1.00
9410;DHT22;4744;52.576;13.568;2023-03-01T11:03:09;10.70;1.00
9410;DHT22;4744;52.576;13.568;2023-03-01T11:05:37;11.20;1.00
9410;DHT22;4744;52.576;13.568;2023-03-01T11:08:30;11.60;1.00
9410;DHT22;4744;52.576;13.568;2023-03-01T11:11:05;11.50;1.00
9410;DHT22;4744;52.576;13.568;2023-03-01T11:13:32;11.30;1.00
9410;DHT22;4744;52.576;13.568;2023-03-01T11:16:00;11.20;1.00
9410;DHT22;4744;52.576;13.568;2023-03-01T11:18:29;10.90;1.00
9410;DHT22;4744;52.576;13.568;2023-03-01T11:20:58;10.80;1.00
9410;DHT22;4744;52.576;13.568;2023-03-01T11:23:28;10.50;1.00
9410;DHT22;4744;52.576;13.568;2023-03-01T11:25:57;10.30;1.00
9410;DHT22;4744;52.576;13.568;2023-03-01T11:28:27;10.10;1.00
9410;DHT22;4744;52.576;13.568;2023-03-01T11:30:57;9.80;1.00
9410;DHT22;4744;52.576;13.568;2023-03-01T11:36:00;9.50;1.00
9410;DHT22;4744;52.576;13.568;2023-03-01T11:38:34;9.10;1.00
9410;DHT22;4744;52.576;13.568;2023-03-01T11:41:05;8.80;1.00
9410;DHT22;4744;52.576;13.568;2023-03-01T11:43:36;8.50;1.00
9410;DHT22;4744;52.576;13.568;2023-03-01T11:46:25;8.40;1.00
9410;DHT22;4744;52.576;13.568;2023-03-01T11:49:03;8.10;1.00
9410;DHT22;4744;52.576;13.568;2023-03-01T11:51:41;8.00;1.00
9410;DHT22;4744;52.576;13.568;2023-03-01T11:54:25;7.90;1.00
9410;DHT22;4744;52.576;13.568;2023-03-01T11:56:55;7.80;1.00
9410;DHT22;4744;52.576;13.568;2023-03-01T12:02:46;7.70;1.00
9410;DHT22;4744;52.576;13.568;2023-03-01T12:05:28;7.70;1.00
9410;DHT22;4744;52.576;13.568;2023-03-01T12:08:06;7.70;1.00
9410;DHT22;4744;52.576;13.568;2023-03-01T12:10:46;7.70;1.00
9410;DHT22;4744;52.576;13.568;2023-03-01T12:13:40;7.70;1.00
9410;DHT22;4744;52.576;13.568;2023-03-01T12:16:23;7.70;1.00
9410;DHT22;4744;52.576;13.568;2023-03-01T12:19:14;7.70;1.00
9410;DHT22;4744;52.576;13.568;2023-03-01T12:22:02;7.70;1.00
9410;DHT22;4744;52.576;13.568;2023-03-01T12:27:47;7.60;1.00
9410;DHT22;4744;52.576;13.568;2023-03-01T12:30:26;7.70;1.00
9410;DHT22;4744;52.576;13.568;2023-03-01T12:33:11;7.70;1.00
9410;DHT22;4744;52.576;13.568;2023-03-01T12:36:07;7.80;1.00
9410;DHT22;4744;52.576;13.568;2023-03-01T12:38:41;7.90;1.00
9410;DHT22;4744;52.576;13.568;2023-03-01T12:44:05;8.10;1.00
9410;DHT22;4744;52.576;13.568;2023-03-01T12:46:46;8.10;1.00
9410;DHT22;4744;52.576;13.568;2023-03-01T12:49:21;8.20;1.00
9410;DHT22;4744;52.576;13.568;2023-03-01T12:51:55;8.20;1.00
9410;DHT22;4744;52.576;13.568;2023-03-01T12:54:28;8.30;1.00
9410;DHT22;4744;52.576;13.568;2023-03-01T12:56:57;8.40;1.00
9410;DHT22;4744;52.576;13.568;2023-03-01T12:59:31;8.50;1.00
9410;DHT22;4744;52.576;13.568;2023-03-01T13:02:05;8.60;1.00
9410;DHT22;4744;52.576;13.568;2023-03-01T13:04:54;8.70;1.00
9410;DHT22;4744;52.576;13.568;2023-03-01T13:07:30;8.90;1.00
9410;DHT22;4744;52.576;13.568;2023-03-01T13:10:11;9.10;1.00
9410;DHT22;4744;52.576;13.568;2023-03-01T13:12:47;9.20;1.00
9410;DHT22;4744;52.576;13.568;2023-03-01T13:15:29;9.20;1.00
9410;DHT22;4744;52.576;13.568;2023-03-01T13:17:58;9.10;1.00
9410;DHT22;4744;52.576;13.568;2023-03-01T13:20:30;9.10;1.00
9410;DHT22;4744;52.576;13.568;2023-03-01T13:23:10;9.00;1.00
9410;DHT22;4744;52.576;13.568;2023-03-01T13:26:01;8.90;1.00
9410;DHT22;4744;52.576;13.568;2023-03-01T13:28:53;8.90;1.00
9410;DHT22;4744;52.576;13.568;2023-03-01T13:34:45;8.80;1.00
9410;DHT22;4744;52.576;13.568;2023-03-01T13:37:23;8.90;1.00
9410;DHT22;4744;52.576;13.568;2023-03-01T13:39:52;8.90;1.00
9410;DHT22;4744;52.576;13.568;2023-03-01T13:42:35;8.90;1.00
9410;DHT22;4744;52.576;13.568;2023-03-01T13:45:12;9.00;1.00
9410;DHT22;4744;52.576;13.568;2023-03-01T13:47:41;8.90;1.00
9410;DHT22;4744;52.576;13.568;2023-03-01T13:50:19;8.80;1.00
9410;DHT22;4744;52.576;13.568;2023-03-01T13:52:50;8.80;1.00
9410;DHT22;4744;52.576;13.568;2023-03-01T13:55:20;8.80;1.00
9410;DHT22;4744;52.576;13.568;2023-03-01T13:57:50;8.70;1.00
9410;DHT22;4744;52.576;13.568;2023-03-01T14:00:32;8.70;1.00
9410;DHT22;4744;52.576;13.568;2023-03-01T14:03:04;8.70;1.00
9410;DHT22;4744;52.576;13.568;2023-03-01T14:05:34;8.70;1.00
9410;DHT22;4744;52.576;13.568;2023-03-01T14:08:02;8.70;1.00
9410;DHT22;4744;52.576;13.568;2023-03-01T14:10:35;8.70;1.00
9410;DHT22;4744;52.576;13.568;2023-03-01T14:13:20;8.70;1.00
9410;DHT22;4744;52.576;13.568;2023-03-01T14:16:01;8.70;1.00
9410;DHT22;4744;52.576;13.568;2023-03-01T14:18:38;8.60;1.00
9410;DHT22;4744;52.576;13.568;2023-03-01T14:21:14;8.60;1.00
9410;DHT22;4744;52.576;13.568;2023-03-01T14:23:42;8.60;1.00
9410;DHT22;4744;52.576;13.568;2023-03-01T14:26:09;8.60;1.00
9410;DHT22;4744;52.576;13.568;2023-03-01T14:28:38;8.60;1.00
9410;DHT22;4744;52.576;13.568;2023-03-01T14:31:31;8.50;1.00
9410;DHT22;4744;52.576;13.568;2023-03-01T14:33:59;8.50;1.00
9410;DHT22;4744;52.576;13.568;2023-03-01T14:36:29;8.40;1.00
9410;DHT22;4744;52.576;13.568;2023-03-01T14:38:57;8.40;1.00
9410;DHT22;4744;52.576;13.568;2023-03-01T14:41:32;8.30;1.00
9410;DHT22;4744;52.576;13.568;2023-03-01T14:44:02;8.40;1.00
9410;DHT22;4744;52.576;13.568;2023-03-01T14:46:32;8.30;1.00
9410;DHT22;4744;52.576;13.568;2023-03-01T14:49:03;8.20;1.00
9410;DHT22;4744;52.576;13.568;2023-03-01T14:51:35;8.10;1.00
9410;DHT22;4744;52.576;13.568;2023-03-01T14:54:04;8.10;1.00
9410;DHT22;4744;52.576;13.568;2023-03-01T14:56:44;8.10;1.00
9410;DHT22;4744;52.576;13.568;2023-03-01T14:59:11;8.10;1.00
9410;DHT22;4744;52.576;13.568;2023-03-01T15:01:39;8.00;1.00
9410;DHT22;4744;52.576;13.568;2023-03-01T15:04:11;8.10;1.00
9410;DHT22;4744;52.576;13.568;2023-03-01T15:06:41;8.00;1.00
9410;DHT22;4744;52.576;13.568;2023-03-01T15:09:13;8.00;1.00
9410;DHT22;4744;52.576;13.568;2023-03-01T15:11:42;8.00;1.00
9410;DHT22;4744;52.576;13.568;2023-03-01T15:14:38;7.90;1.00
9410;DHT22;4744;52.576;13.568;2023-03-01T15:17:20;8.00;1.00
9410;DHT22;4744;52.576;13.568;2023-03-01T15:19:48;8.00;1.00
9410;DHT22;4744;52.576;13.568;2023-03-01T15:22:17;8.00;1.00
9410;DHT22;4744;52.576;13.568;2023-03-01T15:24:47;8.00;1.00
9410;DHT22;4744;52.576;13.568;2023-03-01T15:27:17;8.00;1.00
9410;DHT22;4744;52.576;13.568;2023-03-01T15:29:49;8.00;1.00
9410;DHT22;4744;52.576;13.568;2023-03-01T15:32:28;7.90;1.00
9410;DHT22;4744;52.576;13.568;2023-03-01T15:34:56;7.80;1.00
9410;DHT22;4744;52.576;13.568;2023-03-01T15:37:44;7.80;1.00
9410;DHT22;4744;52.576;13.568;2023-03-01T15:40:22;7.70;1.00
9410;DHT22;4744;52.576;13.568;2023-03-01T15:42:57;7.70;1.00
9410;DHT22;4744;52.576;13.568;2023-03-01T15:45:26;7.70;1.00
9410;DHT22;4744;52.576;13.568;2023-03-01T15:47:54;7.80;1.00
9410;DHT22;4744;52.576;13.568;2023-03-01T15:50:26;7.80;1.00
9410;DHT22;4744;52.576;13.568;2023-03-01T15:52:55;7.70;1.00
9410;DHT22;4744;52.576;13.568;2023-03-01T15:55:24;7.70;1.00
9410;DHT22;4744;52.576;13.568;2023-03-01T15:57:58;7.60;1.00
9410;DHT22;4744;52.576;13.568;2023-03-01T16:00:27;7.60;1.00
9410;DHT22;4744;52.576;13.568;2023-03-01T16:02:54;7.50;1.00
9410;DHT22;4744;52.576;13.568;2023-03-01T16:05:24;7.50;1.00
9410;DHT22;4744;52.576;13.568;2023-03-01T16:07:51;7.50;1.00
9410;DHT22;4744;52.576;13.568;2023-03-01T16:10:21;7.50;1.00
9410;DHT22;4744;52.576;13.568;2023-03-01T16:12:48;7.40;1.00
9410;DHT22;4744;52.576;13.568;2023-03-01T16:15:19;7.40;1.00
9410;DHT22;4744;52.576;13.568;2023-03-01T16:17:47;7.30;1.00
9410;DHT22;4744;52.576;13.568;2023-03-01T16:20:14;7.20;1.00
9410;DHT22;4744;52.576;13.568;2023-03-01T16:22:42;7.20;1.00
9410;DHT22;4744;52.576;13.568;2023-03-01T16:25:09;7.10;1.00
9410;DHT22;4744;52.576;13.568;2023-03-01T16:27:38;7.10;1.00
9410;DHT22;4744;52.576;13.568;2023-03-01T16:30:06;7.00;1.00
9410;DHT22;4744;52.576;13.568;2023-03-01T16:32:37;6.90;1.00
9410;DHT22;4744;52.576;13.568;2023-03-01T16:35:04;6.80;1.00
9410;DHT22;4744;52.576;13.568;2023-03-01T16:37:32;6.70;1.00
9410;DHT22;4744;52.576;13.568;2023-03-01T16:39:59;6.60;1.00
9410;DHT22;4744;52.576;13.568;2023-03-01T16:42:26;6.50;1.00
9410;DHT22;4744;52.576;13.568;2023-03-01T16:44:56;6.40;1.00
9410;DHT22;4744;52.576;13.568;2023-03-01T16:47:23;6.30;1.00